In Rescue
 
Open Full Screen Window  High Contrast Mode
Wind Gusting 00 knots
07
April 02, 2020 10:27 PM CDT
Present Weather: Unknown Precipitation
Weather Information
Wind Direction
  310 °
Wind Speed
  07 kt (8 mph)
Wind Gust
  00 kt (0 mph)
Altimeter
29.99 in
Visibility
7 SM
Temperature
-02° C
28° F
Dewpoint
-03° C
27° F
Humidity
93%
1hr Rain Fall
00.00 in.
24hr Rain Fall
00.29 in.
Sky Condition
Overcast @ 1,000 ft
MVFR

METAR KOVL 030327Z AUTO 31007KT 7SM UP OVC010 M02/M03 A2999 RMK AO22

FAA Disclaimer: The data displayed is for advisory purposes only and is not to be used for flight planning or operations.